Pagina principale
METAR-TAF:

METAR-TAF

Aeroporti :

Aeroporto di Portorose

Portorose, Slovenia

latitudine: 45-31N, longitudine: 013-34E, altezza: 95 m

Osservazione

Il bollettino è stato emesso 25 minuti fa, alle 02:30 UTC
Vento 6 kt da sud-est
Temperature 12°C
Umidità 71%
Pressione 1018 hPa
Visibilità 10 km o più

METAR: LJPZ 240230Z AUTO 13006KT 9999 OVC033/// 12/07 Q1018

Ora: 03:55 (02:55 UTC)

Previsione

Il bollettino è stato emesso 55 minuti fa, alle 02:00 UTC
Previsione valida dal 24 alle 03 UTC al 24 alle 12 UTC
Vento 5 kt da sud-est
Visibilità: 7000 m
Nuvoloso ad un'altezza di 3300 ft
Evoluzione graduale
dal 24 alle 06 UTC al 24 alle 09 UTC
Nubi sparse ad un'altezza di 4000 ft
Evoluzione graduale
dal 24 alle 09 UTC al 24 alle 12 UTC
Vento 5 kt da ovest/nord-ovest

TAF: LJPZ 240200Z 2403/2412 13005KT 7000 BKN033 BECMG 2406/2409 SCT040 BECMG 2409/2412 30005KT

Osservazioni e previsioni meteorologiche di più di 4000 aeroporti (messaggi METAR e TAF).

Le stazioni disponibili sono rappresentate dai dischi gialli e rossi sulla carta.

Puntare il mouse per vedere il nome della stazione.

Clicca sopra per visualizzare le osservazioni e previsioni meteorologiche.

Per cambiare la mappa : fare clic sui pulsanti verdi con una croce nera per ingrandire, il pulsante verde con un trattino per diminuire, o sulla freccia verde per le mappe adiacenti.


METAR-TAF: